Time;durP1;ratioP1;P1;durP2;ratioP2;P2;SDS_P1;SDS_P2;PMS_P1;PMS_P2;Temp;Humidity;BMP_temperature;BMP_pressure;BME280_temperature;BME280_humidity;BME280_pressure;Samples;Min_cycle;Max_cycle;Signal;HPM_P1;HPM_P2
2023/09/18 00:02:15;;;;;;;4.47;4.17;;;18.70;99.90;;;;;;5078852;28;20177;-51
2023/09/18 00:04:43;;;;;;;5.27;4.87;;;18.70;99.90;;;;;;5078642;28;20260;-50
2023/09/18 00:07:10;;;;;;;5.10;4.70;;;18.70;99.90;;;;;;5081432;28;20549;-54
2023/09/18 00:09:37;;;;;;;5.30;4.80;;;18.60;99.90;;;;;;5079746;28;20217;-49
2023/09/18 00:12:05;;;;;;;5.67;5.03;;;18.60;99.90;;;;;;5081667;28;20283;-51
2023/09/18 00:14:32;;;;;;;5.53;5.00;;;18.60;99.90;;;;;;5048742;28;20765;-51
2023/09/18 00:17:00;;;;;;;4.80;4.40;;;18.60;99.90;;;;;;5080910;28;20191;-49
2023/09/18 00:19:27;;;;;;;4.77;4.37;;;18.60;99.90;;;;;;5081046;28;20206;-48
2023/09/18 00:21:56;;;;;;;4.87;4.50;;;18.50;99.90;;;;;;5079899;28;21023;-48
2023/09/18 00:24:25;;;;;;;5.17;4.77;;;18.50;99.90;;;;;;5081156;28;20259;-51
2023/09/18 00:26:52;;;;;;;5.93;4.70;;;18.50;99.90;;;;;;5079149;28;20197;-52
2023/09/18 00:29:20;;;;;;;5.60;5.10;;;18.50;99.90;;;;;;5045975;28;20198;-52
2023/09/18 00:31:47;;;;;;;5.53;5.13;;;18.50;99.90;;;;;;5078436;28;20194;-46
2023/09/18 00:34:14;;;;;;;5.40;4.90;;;18.50;99.90;;;;;;5081763;28;20702;-52
2023/09/18 00:36:41;;;;;;;5.97;5.47;;;18.40;99.90;;;;;;5077049;28;20239;-49
2023/09/18 00:39:09;;;;;;;5.67;5.17;;;18.40;99.90;;;;;;5081705;28;20687;-49
2023/09/18 00:41:37;;;;;;;5.37;4.80;;;18.40;99.90;;;;;;5078094;28;20221;-49
2023/09/18 00:44:05;;;;;;;5.93;5.20;;;18.40;99.90;;;;;;5045837;28;20224;-54
2023/09/18 00:46:32;;;;;;;5.13;4.73;;;18.30;99.90;;;;;;5079828;28;20217;-48
2023/09/18 00:48:59;;;;;;;4.97;4.67;;;18.30;99.90;;;;;;5080512;28;20190;-55
2023/09/18 00:51:27;;;;;;;5.40;4.93;;;18.30;99.90;;;;;;5080861;28;20271;-51
2023/09/18 00:53:54;;;;;;;5.37;4.97;;;18.30;99.90;;;;;;5078616;28;20929;-48
2023/09/18 00:56:22;;;;;;;5.07;4.67;;;18.30;99.90;;;;;;5080268;28;20224;-52
2023/09/18 00:58:50;;;;;;;4.70;4.40;;;18.30;99.90;;;;;;5058888;28;20198;-53
2023/09/18 01:01:22;;;;;;;5.00;4.70;;;18.30;99.90;;;;;;5080947;28;20296;-53
2023/09/18 01:03:50;;;;;;;5.43;4.93;;;18.30;99.90;;;;;;5074236;28;20193;-48
2023/09/18 01:06:18;;;;;;;5.37;4.90;;;18.30;99.90;;;;;;5065638;28;21330;-51
2023/09/18 01:08:45;;;;;;;5.97;4.80;;;18.30;99.90;;;;;;5080104;28;20225;-50
2023/09/18 01:11:20;;;;;;;5.80;5.23;;;18.30;99.90;;;;;;5077804;28;20275;-48
2023/09/18 01:13:55;;;;;;;5.27;4.77;;;18.30;99.90;;;;;;5078216;28;20277;-53
2023/09/18 01:16:28;;;;;;;5.10;4.63;;;18.20;99.90;;;;;;5044139;28;20270;-48
2023/09/18 01:18:55;;;;;;;5.13;4.73;;;18.20;99.90;;;;;;5080821;28;20267;-50
2023/09/18 01:21:21;;;;;;;5.13;4.67;;;18.20;99.90;;;;;;5080642;28;20205;-48
2023/09/18 01:23:51;;;;;;;4.67;4.23;;;18.20;99.90;;;;;;5085816;28;20205;-52
2023/09/18 01:26:18;;;;;;;5.23;4.77;;;18.20;99.90;;;;;;5079979;28;20232;-48
2023/09/18 01:28:45;;;;;;;5.43;5.03;;;18.20;99.90;;;;;;5085541;28;20664;-48
2023/09/18 01:31:11;;;;;;;5.07;4.57;;;18.20;99.90;;;;;;5051503;28;20688;-51
2023/09/18 01:33:40;;;;;;;4.57;4.27;;;18.20;99.90;;;;;;5084962;28;20206;-50
2023/09/18 01:36:08;;;;;;;5.53;5.13;;;18.10;99.90;;;;;;5083031;28;20222;-50
2023/09/18 01:38:36;;;;;;;5.80;4.83;;;18.20;99.90;;;;;;5083369;28;20245;-54
2023/09/18 01:41:05;;;;;;;4.97;4.67;;;18.10;99.90;;;;;;5083905;28;20273;-47
2023/09/18 01:43:32;;;;;;;5.00;4.70;;;18.10;99.90;;;;;;5083410;28;20913;-48
2023/09/18 01:45:58;;;;;;;4.90;4.50;;;18.10;99.90;;;;;;5046780;28;20986;-47
2023/09/18 01:48:25;;;;;;;5.37;4.87;;;18.10;99.90;;;;;;5081922;28;20205;-53
2023/09/18 01:50:52;;;;;;;5.30;4.90;;;18.10;99.90;;;;;;5085148;28;20201;-50
2023/09/18 01:53:20;;;;;;;5.37;4.97;;;18.00;99.90;;;;;;5069864;28;20969;-52
2023/09/18 01:55:47;;;;;;;5.53;5.03;;;18.00;99.90;;;;;;5084734;28;20711;-51
2023/09/18 01:58:16;;;;;;;4.77;4.47;;;17.90;99.90;;;;;;5080166;28;20182;-51
2023/09/18 02:00:42;;;;;;;5.50;5.00;;;18.00;99.90;;;;;;5100058;28;20206;-50
2023/09/18 02:03:09;;;;;;;4.70;4.40;;;17.90;99.90;;;;;;5049413;28;20988;-48
2023/09/18 02:05:36;;;;;;;4.97;4.63;;;18.00;99.90;;;;;;5083271;28;20640;-47
2023/09/18 02:08:03;;;;;;;5.10;4.60;;;18.00;99.90;;;;;;5080435;28;20244;-49
2023/09/18 02:10:30;;;;;;;5.63;5.23;;;17.90;99.90;;;;;;5084241;28;20741;-49
2023/09/18 02:12:57;;;;;;;5.57;5.17;;;17.80;99.90;;;;;;5082133;28;20190;-48
2023/09/18 02:15:25;;;;;;;5.30;4.90;;;17.80;99.90;;;;;;5081376;28;20862;-47
2023/09/18 02:17:53;;;;;;;5.57;4.90;;;17.70;99.90;;;;;;5051396;28;20564;-45
2023/09/18 02:20:20;;;;;;;5.37;4.97;;;17.70;99.90;;;;;;5081934;28;20182;-52
2023/09/18 02:22:47;;;;;;;5.97;4.87;;;17.70;99.90;;;;;;5080789;28;20243;-49
2023/09/18 02:25:14;;;;;;;5.30;4.80;;;17.70;99.90;;;;;;5079595;28;20984;-48
2023/09/18 02:27:41;;;;;;;5.47;5.07;;;17.70;99.90;;;;;;5084019;28;20229;-48
2023/09/18 02:30:09;;;;;;;6.07;5.57;;;17.70;99.90;;;;;;5080510;28;20198;-48
2023/09/18 02:32:38;;;;;;;6.30;5.37;;;17.70;99.90;;;;;;5050855;28;20282;-51
2023/09/18 02:35:07;;;;;;;5.30;4.97;;;17.70;99.90;;;;;;5080981;28;20569;-49
2023/09/18 02:37:33;;;;;;;5.70;4.90;;;17.70;99.90;;;;;;5082644;28;20194;-48
2023/09/18 02:40:00;;;;;;;5.50;5.10;;;17.70;99.90;;;;;;5081432;28;20202;-51
2023/09/18 02:42:27;;;;;;;5.63;5.13;;;17.70;99.90;;;;;;5083274;28;20274;-47
2023/09/18 02:44:54;;;;;;;5.33;4.93;;;17.70;99.90;;;;;;5082671;28;20228;-49
2023/09/18 02:47:21;;;;;;;5.87;5.40;;;17.70;99.90;;;;;;5080713;28;20186;-47
2023/09/18 02:49:49;;;;;;;5.57;5.17;;;17.70;99.90;;;;;;5051060;28;20280;-50
2023/09/18 02:52:16;;;;;;;5.87;5.13;;;17.70;99.90;;;;;;5079341;28;20278;-50
2023/09/18 02:54:42;;;;;;;5.60;5.10;;;17.70;99.90;;;;;;5083770;28;20271;-51
2023/09/18 02:57:09;;;;;;;6.43;5.83;;;17.70;99.90;;;;;;5078939;28;20210;-47
2023/09/18 02:59:36;;;;;;;5.63;5.23;;;17.70;99.90;;;;;;5082547;28;20566;-47
2023/09/18 03:02:04;;;;;;;5.83;5.33;;;17.60;99.90;;;;;;5079373;28;20189;-49
2023/09/18 03:04:31;;;;;;;5.80;5.30;;;17.60;99.90;;;;;;5052334;28;20217;-47
2023/09/18 03:07:00;;;;;;;5.30;4.87;;;17.60;99.90;;;;;;5079836;28;20198;-48
2023/09/18 03:09:27;;;;;;;5.47;4.97;;;17.60;99.90;;;;;;5076092;28;20241;-50
2023/09/18 03:11:54;;;;;;;5.87;5.30;;;17.60;99.90;;;;;;5080575;28;20194;-49
2023/09/18 03:14:21;;;;;;;5.50;4.90;;;17.60;99.90;;;;;;5079384;28;20194;-51
2023/09/18 03:16:47;;;;;;;6.00;5.50;;;17.60;99.90;;;;;;5081303;28;20214;-47
2023/09/18 03:19:15;;;;;;;5.53;5.03;;;17.60;99.90;;;;;;5044518;28;21084;-49
2023/09/18 03:21:42;;;;;;;5.77;5.37;;;17.60;99.90;;;;;;5081683;28;20683;-50
2023/09/18 03:24:11;;;;;;;6.13;5.13;;;17.60;99.90;;;;;;5078290;28;20206;-52
2023/09/18 03:26:38;;;;;;;5.63;5.20;;;17.60;99.90;;;;;;5081977;28;20784;-50
2023/09/18 03:29:05;;;;;;;5.50;5.00;;;17.60;99.90;;;;;;5079609;28;20683;-50
2023/09/18 03:31:32;;;;;;;5.83;5.33;;;17.50;99.90;;;;;;5082043;28;20221;-54
2023/09/18 03:33:59;;;;;;;5.50;5.00;;;17.50;99.90;;;;;;5059547;28;20253;-49
2023/09/18 03:36:27;;;;;;;5.50;5.10;;;17.60;99.90;;;;;;5073574;28;20680;-49
2023/09/18 03:38:54;;;;;;;5.70;5.03;;;17.50;99.90;;;;;;5080366;28;20209;-46
2023/09/18 03:41:22;;;;;;;5.33;4.93;;;17.50;99.90;;;;;;5079677;28;20204;-49
2023/09/18 03:43:50;;;;;;;5.97;5.47;;;17.50;99.90;;;;;;5098264;28;20200;-49
2023/09/18 03:46:16;;;;;;;6.20;5.60;;;17.50;99.90;;;;;;5078347;28;20210;-53
2023/09/18 03:48:47;;;;;;;5.20;4.80;;;17.50;99.90;;;;;;5081573;28;20292;-48
2023/09/18 03:51:15;;;;;;;5.97;5.43;;;17.40;99.90;;;;;;5044021;28;20209;-51
2023/09/18 03:53:42;;;;;;;5.87;5.37;;;17.40;99.90;;;;;;5080721;28;20228;-51
2023/09/18 03:56:09;;;;;;;7.70;5.73;;;17.40;99.90;;;;;;5078867;28;20217;-50
2023/09/18 03:58:37;;;;;;;6.03;5.60;;;17.40;99.90;;;;;;5081185;28;20287;-47
2023/09/18 04:01:04;;;;;;;8.90;5.90;;;17.40;99.90;;;;;;5077906;28;20212;-47
2023/09/18 04:03:31;;;;;;;5.93;5.37;;;17.40;99.90;;;;;;5081365;28;20190;-49
2023/09/18 04:05:59;;;;;;;6.30;5.80;;;17.40;99.90;;;;;;5057167;28;20707;-49
2023/09/18 04:08:26;;;;;;;5.80;5.40;;;17.40;99.90;;;;;;5072996;28;20205;-51
2023/09/18 04:10:55;;;;;;;5.77;5.30;;;17.30;99.90;;;;;;5081562;28;20648;-48
2023/09/18 04:13:22;;;;;;;6.03;5.50;;;17.30;99.90;;;;;;5079672;28;20931;-48
2023/09/18 04:15:51;;;;;;;6.20;5.70;;;17.30;99.90;;;;;;5080125;28;20214;-46
2023/09/18 04:18:19;;;;;;;5.73;5.23;;;17.30;99.90;;;;;;5079718;28;20186;-52
2023/09/18 04:20:45;;;;;;;6.37;5.67;;;17.30;99.90;;;;;;5077022;28;20210;-53
2023/09/18 04:23:23;;;;;;;6.30;5.80;;;17.30;99.90;;;;;;5047085;28;20209;-49
2023/09/18 04:25:52;;;;;;;5.87;5.47;;;17.30;99.90;;;;;;5092096;28;20206;-45
2023/09/18 04:28:20;;;;;;;5.87;5.37;;;17.20;99.90;;;;;;5078371;28;20192;-50
2023/09/18 04:30:47;;;;;;;5.60;5.13;;;17.20;99.90;;;;;;5094924;28;20190;-50
2023/09/18 04:33:16;;;;;;;6.27;5.77;;;17.20;99.90;;;;;;5077914;28;20186;-54
2023/09/18 04:35:44;;;;;;;6.23;5.73;;;17.20;99.90;;;;;;5074580;28;20214;-50
2023/09/18 04:38:14;;;;;;;6.87;6.23;;;17.20;99.90;;;;;;5045968;28;20310;-45
2023/09/18 04:40:41;;;;;;;7.57;5.70;;;17.20;99.90;;;;;;5076264;28;20226;-51
2023/09/18 04:43:08;;;;;;;6.23;5.60;;;17.20;99.90;;;;;;5077062;28;20271;-43
2023/09/18 04:45:35;;;;;;;6.47;5.60;;;17.20;99.90;;;;;;5082133;28;20210;-50
2023/09/18 04:48:02;;;;;;;5.57;5.17;;;17.20;99.90;;;;;;5069760;28;20292;-59
2023/09/18 04:50:31;;;;;;;6.40;5.77;;;17.20;99.90;;;;;;5080593;28;20193;-44
2023/09/18 04:52:58;;;;;;;7.00;5.73;;;17.20;99.90;;;;;;5069970;28;20209;-61
2023/09/18 04:55:26;;;;;;;6.67;6.17;;;17.20;99.90;;;;;;5049724;28;20234;-48
2023/09/18 04:57:53;;;;;;;6.50;5.90;;;17.20;99.90;;;;;;5084662;28;20194;-58
2023/09/18 05:00:23;;;;;;;6.67;6.07;;;17.20;99.90;;;;;;5082376;28;20293;-49
2023/09/18 05:02:50;;;;;;;6.00;5.50;;;17.10;99.90;;;;;;5082431;28;20197;-59
2023/09/18 05:05:17;;;;;;;6.53;5.93;;;17.10;99.90;;;;;;5084807;28;20298;-55
2023/09/18 05:07:46;;;;;;;6.50;6.00;;;17.10;99.90;;;;;;5075102;28;20198;-44
2023/09/18 05:10:13;;;;;;;6.17;5.60;;;17.10;99.90;;;;;;5044790;28;20209;-45
2023/09/18 05:12:40;;;;;;;6.70;6.20;;;17.10;99.90;;;;;;5086609;28;20201;-46
2023/09/18 05:15:09;;;;;;;6.77;6.17;;;17.10;99.90;;;;;;5082201;28;20220;-52
2023/09/18 05:17:43;;;;;;;6.40;5.90;;;17.20;99.90;;;;;;5079349;28;21068;-57
2023/09/18 05:20:13;;;;;;;6.47;5.87;;;17.20;99.90;;;;;;5086494;28;20205;-44
2023/09/18 05:22:41;;;;;;;7.13;6.03;;;17.20;99.90;;;;;;5066241;28;20205;-51
2023/09/18 05:25:10;;;;;;;5.97;5.50;;;17.20;99.90;;;;;;5086602;28;20214;-47
2023/09/18 05:27:43;;;;;;;6.27;5.80;;;17.20;99.90;;;;;;5051501;28;20194;-59
2023/09/18 05:30:12;;;;;;;8.33;7.43;;;17.20;99.90;;;;;;5085772;28;20571;-46
2023/09/18 05:32:39;;;;;;;6.80;6.10;;;17.30;99.90;;;;;;5081735;28;20196;-44
2023/09/18 05:35:10;;;;;;;6.97;6.30;;;17.20;99.90;;;;;;5074651;28;20222;-59
2023/09/18 05:37:37;;;;;;;7.23;6.30;;;17.30;99.90;;;;;;5073081;28;21463;-47
2023/09/18 05:40:06;;;;;;;6.47;5.93;;;17.30;99.90;;;;;;5080175;28;20226;-52
2023/09/18 05:42:34;;;;;;;6.30;5.80;;;17.40;99.90;;;;;;5048550;28;20202;-47
2023/09/18 05:45:01;;;;;;;6.60;6.00;;;17.40;99.90;;;;;;5085877;28;20222;-47
2023/09/18 05:47:29;;;;;;;6.53;6.00;;;17.40;99.90;;;;;;5079611;28;20182;-47
2023/09/18 05:49:56;;;;;;;6.63;6.07;;;17.50;99.90;;;;;;5075105;28;20202;-50
2023/09/18 05:52:25;;;;;;;6.90;6.27;;;17.50;99.90;;;;;;5071693;28;20641;-54
2023/09/18 05:54:52;;;;;;;5.90;5.30;;;17.50;99.90;;;;;;5078611;28;20221;-47
2023/09/18 05:57:19;;;;;;;6.03;5.53;;;17.50;99.90;;;;;;5049529;28;20222;-53
2023/09/18 05:59:47;;;;;;;6.97;6.23;;;17.50;99.90;;;;;;5080634;28;20198;-48
2023/09/18 06:02:16;;;;;;;6.13;5.43;;;17.50;99.90;;;;;;5082633;28;20247;-54
2023/09/18 06:04:43;;;;;;;7.53;5.87;;;17.60;99.90;;;;;;5083874;28;20315;-49
2023/09/18 06:07:10;;;;;;;5.37;4.97;;;17.60;99.90;;;;;;5083266;28;20298;-52
2023/09/18 06:09:36;;;;;;;7.03;6.33;;;17.60;99.90;;;;;;5066446;28;20209;-51
2023/09/18 06:12:04;;;;;;;6.07;5.47;;;17.70;99.90;;;;;;5085113;28;20279;-54
2023/09/18 06:14:33;;;;;;;6.17;5.57;;;17.70;99.90;;;;;;5055207;28;20213;-52
2023/09/18 06:17:02;;;;;;;6.37;5.77;;;17.80;99.90;;;;;;5085021;28;20876;-49
2023/09/18 06:19:29;;;;;;;6.60;6.00;;;17.90;99.90;;;;;;5080316;28;20201;-49
2023/09/18 06:21:56;;;;;;;5.77;5.37;;;17.90;99.90;;;;;;5085468;28;20240;-46
2023/09/18 06:24:23;;;;;;;6.23;5.73;;;18.00;99.90;;;;;;5073236;28;20198;-58
2023/09/18 06:26:51;;;;;;;6.37;5.77;;;18.10;99.90;;;;;;5079561;28;20268;-50
2023/09/18 06:29:18;;;;;;;6.40;5.80;;;18.20;99.90;;;;;;5043621;28;20232;-57
2023/09/18 06:31:44;;;;;;;6.17;5.67;;;18.20;99.90;;;;;;5084146;28;20671;-46
2023/09/18 06:34:13;;;;;;;6.03;5.53;;;18.30;99.90;;;;;;5083420;28;20198;-57
2023/09/18 06:36:40;;;;;;;6.47;5.87;;;18.40;99.90;;;;;;5098297;28;20214;-48
2023/09/18 06:39:07;;;;;;;6.47;5.97;;;18.40;99.90;;;;;;5083121;28;20607;-47
2023/09/18 06:41:34;;;;;;;6.03;5.50;;;18.50;99.90;;;;;;5065930;28;20209;-48
2023/09/18 06:44:02;;;;;;;6.03;5.63;;;18.50;99.90;;;;;;5052854;28;20218;-49
2023/09/18 06:46:29;;;;;;;7.27;5.83;;;18.60;99.90;;;;;;5080743;28;20233;-47
2023/09/18 06:48:57;;;;;;;7.33;6.43;;;18.70;99.90;;;;;;5084689;28;20656;-50
2023/09/18 06:51:25;;;;;;;5.90;5.40;;;18.70;99.90;;;;;;5080241;28;20291;-49
2023/09/18 06:53:52;;;;;;;6.13;5.63;;;18.70;99.90;;;;;;5083428;28;20203;-51
2023/09/18 06:56:19;;;;;;;5.80;5.23;;;18.80;99.90;;;;;;5074080;28;20225;-48
2023/09/18 06:58:47;;;;;;;5.87;5.37;;;18.80;99.90;;;;;;5052770;28;20214;-54
2023/09/18 07:01:15;;;;;;;6.53;5.53;;;18.80;99.90;;;;;;5083158;28;20198;-48
2023/09/18 07:03:42;;;;;;;7.03;6.07;;;18.90;99.90;;;;;;5083626;28;20206;-50
2023/09/18 07:06:08;;;;;;;6.43;5.93;;;18.90;99.90;;;;;;5083361;28;20286;-51
2023/09/18 07:08:37;;;;;;;5.90;5.40;;;18.90;99.90;;;;;;5081344;28;20202;-47
2023/09/18 07:11:03;;;;;;;5.97;5.47;;;19.00;99.90;;;;;;5084028;28;20198;-50
2023/09/18 07:13:30;;;;;;;5.63;5.23;;;19.10;99.90;;;;;;5037639;28;21106;-50
2023/09/18 07:15:57;;;;;;;6.00;5.47;;;19.10;99.90;;;;;;5083115;28;20210;-47
2023/09/18 07:18:24;;;;;;;6.43;5.27;;;19.20;99.90;;;;;;5078455;28;20738;-47
2023/09/18 07:20:52;;;;;;;5.77;5.27;;;19.30;99.90;;;;;;5084497;28;20209;-45
2023/09/18 07:23:18;;;;;;;5.90;5.40;;;19.40;99.90;;;;;;5080590;28;20228;-53
2023/09/18 07:25:48;;;;;;;6.63;6.03;;;19.40;99.90;;;;;;5082654;28;20229;-49
2023/09/18 07:28:17;;;;;;;6.27;5.17;;;19.50;99.90;;;;;;5070171;28;20560;-54
2023/09/18 07:30:44;;;;;;;5.73;5.30;;;19.60;99.90;;;;;;5050298;28;20209;-45
2023/09/18 07:33:11;;;;;;;5.70;5.20;;;19.70;99.90;;;;;;5082217;28;20652;-50
2023/09/18 07:35:38;;;;;;;6.50;5.53;;;19.70;99.90;;;;;;5081151;28;20213;-47
2023/09/18 07:38:05;;;;;;;6.90;5.43;;;19.80;99.90;;;;;;5082793;28;20249;-52
2023/09/18 07:40:32;;;;;;;5.80;5.30;;;19.80;99.90;;;;;;5080179;28;20265;-49
2023/09/18 07:43:00;;;;;;;6.13;5.40;;;19.90;99.90;;;;;;5083836;28;20198;-50
2023/09/18 07:45:27;;;;;;;5.67;5.27;;;20.00;99.90;;;;;;5037946;28;20241;-49
2023/09/18 07:47:54;;;;;;;5.77;5.27;;;20.00;99.90;;;;;;5072410;28;20205;-52
2023/09/18 07:50:21;;;;;;;5.90;5.40;;;20.10;99.90;;;;;;5078997;28;20750;-48
2023/09/18 07:52:48;;;;;;;5.50;5.10;;;20.10;99.90;;;;;;5074889;28;20206;-47
2023/09/18 07:55:15;;;;;;;5.10;4.70;;;20.20;99.90;;;;;;5079191;28;20955;-49
2023/09/18 07:57:44;;;;;;;6.03;5.20;;;20.10;99.90;;;;;;5082456;28;20228;-50
2023/09/18 08:00:15;;;;;;;5.73;5.23;;;20.20;99.90;;;;;;5041506;28;20214;-53
2023/09/18 08:02:42;;;;;;;5.27;4.87;;;20.30;99.90;;;;;;5081423;28;20258;-50
2023/09/18 08:05:09;;;;;;;5.60;5.17;;;20.30;99.90;;;;;;5077531;28;20297;-49
2023/09/18 08:07:38;;;;;;;5.37;4.87;;;20.40;99.90;;;;;;5069792;28;20289;-50
2023/09/18 08:10:08;;;;;;;5.70;5.10;;;20.50;99.90;;;;;;5057443;28;21579;-52
2023/09/18 08:12:35;;;;;;;7.60;5.57;;;20.60;99.90;;;;;;5055427;28;20312;-53
2023/09/18 08:15:02;;;;;;;6.00;4.67;;;20.60;99.90;;;;;;5072764;28;20302;-49
2023/09/18 08:17:31;;;;;;;5.17;4.87;;;20.70;99.90;;;;;;5046532;28;20855;-47
2023/09/18 08:19:58;;;;;;;5.70;5.30;;;20.70;99.90;;;;;;5080366;28;20237;-50
2023/09/18 08:22:26;;;;;;;5.70;5.30;;;20.80;99.90;;;;;;5068466;28;20213;-57
2023/09/18 08:24:53;;;;;;;5.30;4.90;;;20.80;99.90;;;;;;5074666;28;20736;-53
2023/09/18 08:27:20;;;;;;;7.75;4.80;;;20.80;99.90;;;;;;5060644;28;20198;-55
2023/09/18 08:29:47;;;;;;;5.20;4.63;;;20.90;99.90;;;;;;5079356;28;20206;-52
2023/09/18 08:32:14;;;;;;;5.53;5.00;;;20.90;99.90;;;;;;5041325;28;20202;-56
2023/09/18 08:34:43;;;;;;;4.93;4.38;;;20.90;99.90;;;;;;5080156;28;20877;-53
2023/09/18 08:37:10;;;;;;;4.82;4.45;;;21.00;99.90;;;;;;5080403;28;20275;-52
2023/09/18 08:39:37;;;;;;;5.45;5.00;;;21.00;99.90;;;;;;5064526;28;20312;-50
2023/09/18 08:42:06;;;;;;;5.50;4.93;;;21.00;99.90;;;;;;5066345;28;20194;-51
2023/09/18 08:44:33;;;;;;;5.20;4.60;;;21.10;99.90;;;;;;5071234;28;20255;-52
2023/09/18 08:47:00;;;;;;;5.32;4.82;;;21.10;99.90;;;;;;5042477;28;20251;-49
2023/09/18 08:49:28;;;;;;;4.68;4.38;;;21.10;99.90;;;;;;5078200;28;20748;-49
2023/09/18 08:51:58;;;;;;;5.13;4.72;;;21.10;99.90;;;;;;5080077;28;20252;-50
2023/09/18 08:54:25;;;;;;;4.97;4.47;;;21.10;99.90;;;;;;5062375;28;20229;-54
2023/09/18 08:56:52;;;;;;;4.82;4.43;;;21.20;99.90;;;;;;5081503;28;20214;-50
2023/09/18 08:59:21;;;;;;;5.32;4.88;;;21.20;99.90;;;;;;5055260;28;20583;-55
2023/09/18 09:01:48;;;;;;;5.10;4.70;;;21.20;99.90;;;;;;5073919;28;20198;-48
2023/09/18 09:04:15;;;;;;;5.80;4.40;;;21.10;99.90;;;;;;5038734;28;20236;-55
2023/09/18 09:06:43;;;;;;;4.93;4.53;;;21.20;99.90;;;;;;5080589;28;20190;-49
2023/09/18 09:09:12;;;;;;;6.15;4.07;;;21.30;99.90;;;;;;5072057;28;20601;-57
2023/09/18 09:11:40;;;;;;;4.97;4.55;;;21.20;99.90;;;;;;5072053;28;20218;-50
2023/09/18 09:14:15;;;;;;;5.43;4.93;;;21.30;99.90;;;;;;5065350;28;20277;-47
2023/09/18 09:16:47;;;;;;;5.28;4.97;;;21.40;99.90;;;;;;5068233;28;21010;-48
2023/09/18 09:19:14;;;;;;;4.70;4.40;;;21.40;99.90;;;;;;5047722;28;20216;-55
2023/09/18 09:21:43;;;;;;;5.68;5.10;;;21.30;99.90;;;;;;5079756;28;20846;-46
2023/09/18 09:24:13;;;;;;;4.80;4.50;;;21.30;99.90;;;;;;5078624;28;20229;-57
2023/09/18 09:26:42;;;;;;;6.45;4.72;;;21.30;99.90;;;;;;5065486;28;20317;-47
2023/09/18 09:29:20;;;;;;;4.78;4.38;;;21.30;99.90;;;;;;5066660;28;20202;-51
2023/09/18 09:31:47;;;;;;;5.03;4.63;;;21.30;99.90;;;;;;5073130;28;20218;-49
2023/09/18 09:34:25;;;;;;;4.45;4.15;;;21.40;99.90;;;;;;5053790;28;20224;-60
2023/09/18 09:36:53;;;;;;;5.03;4.63;;;21.60;99.90;;;;;;5081583;28;20198;-50
2023/09/18 09:39:24;;;;;;;4.93;4.60;;;21.80;99.90;;;;;;5078957;28;20201;-57
2023/09/18 09:41:52;;;;;;;4.78;4.38;;;21.90;99.90;;;;;;5074797;28;21513;-47
2023/09/18 09:44:20;;;;;;;5.10;4.70;;;22.00;99.90;;;;;;5061216;28;20680;-58
2023/09/18 09:46:48;;;;;;;5.22;4.78;;;22.00;99.90;;;;;;5080419;28;20206;-46
2023/09/18 09:49:16;;;;;;;5.68;4.68;;;22.10;99.90;;;;;;5050973;28;20702;-58
2023/09/18 09:51:43;;;;;;;5.40;5.00;;;22.10;99.90;;;;;;5083284;28;20948;-46
2023/09/18 09:54:10;;;;;;;4.90;4.57;;;22.10;99.90;;;;;;5085122;28;20233;-57
2023/09/18 09:56:48;;;;;;;5.20;4.72;;;22.10;99.90;;;;;;5072616;28;21903;-46
2023/09/18 09:59:16;;;;;;;4.90;4.25;;;22.20;99.90;;;;;;5059157;28;20201;-58
2023/09/18 10:01:44;;;;;;;4.70;4.40;;;22.30;99.90;;;;;;5076542;28;20194;-47
2023/09/18 10:04:13;;;;;;;5.57;4.45;;;22.30;99.90;;;;;;5068953;28;20266;-58
2023/09/18 10:06:44;;;;;;;5.68;4.45;;;22.30;99.90;;;;;;5053541;28;20202;-47
2023/09/18 10:09:14;;;;;;;4.97;4.28;;;22.30;99.90;;;;;;5079667;28;20247;-56
2023/09/18 10:11:44;;;;;;;4.78;4.32;;;22.30;99.90;;;;;;5084711;28;20198;-53
2023/09/18 10:14:16;;;;;;;4.85;4.45;;;22.40;99.90;;;;;;5048707;28;20328;-61
2023/09/18 10:16:47;;;;;;;4.90;4.35;;;22.40;99.90;;;;;;5078016;28;20488;-44
2023/09/18 10:19:24;;;;;;;4.85;4.40;;;22.50;99.90;;;;;;5072489;28;20230;-51
2023/09/18 10:22:12;;;;;;;6.35;4.93;;;22.50;99.90;;;;;;5052080;28;20205;-52
2023/09/18 10:24:41;;;;;;;5.22;4.72;;;22.50;99.90;;;;;;5083629;28;20214;-50
2023/09/18 10:27:09;;;;;;;5.03;4.35;;;22.50;99.90;;;;;;5079524;28;20196;-58
2023/09/18 10:29:38;;;;;;;4.88;4.20;;;22.50;99.90;;;;;;5074436;28;20202;-51
2023/09/18 10:32:08;;;;;;;6.07;4.05;;;22.50;99.90;;;;;;5058504;28;20290;-56
2023/09/18 10:34:36;;;;;;;7.78;4.20;;;22.50;99.90;;;;;;5082004;28;20240;-48
2023/09/18 10:37:06;;;;;;;4.63;4.22;;;22.70;99.90;;;;;;5050047;28;20206;-53
2023/09/18 10:39:36;;;;;;;5.20;4.60;;;22.80;99.90;;;;;;5080586;28;20261;-47
2023/09/18 10:42:06;;;;;;;6.25;4.00;;;22.90;99.90;;;;;;5080853;28;20255;-54
2023/09/18 10:44:33;;;;;;;5.38;4.88;;;23.00;99.90;;;;;;5074508;28;20962;-46
2023/09/18 10:47:05;;;;;;;4.85;3.97;;;23.00;99.90;;;;;;5063278;28;20229;-57
2023/09/18 10:49:32;;;;;;;5.75;4.78;;;23.00;99.90;;;;;;5075894;28;20271;-54
2023/09/18 10:52:00;;;;;;;5.60;3.83;;;23.00;99.90;;;;;;5046846;28;20206;-58
2023/09/18 10:54:32;;;;;;;7.25;4.65;;;23.00;99.90;;;;;;5081822;28;20186;-48
2023/09/18 10:57:01;;;;;;;6.35;4.20;;;23.10;99.90;;;;;;5082985;28;20634;-53
2023/09/18 10:59:29;;;;;;;5.97;4.30;;;23.10;99.90;;;;;;5082890;28;20919;-50
2023/09/18 11:01:56;;;;;;;5.20;3.83;;;23.20;99.90;;;;;;5054183;28;20234;-51
2023/09/18 11:04:24;;;;;;;4.60;4.00;;;23.30;99.90;;;;;;5074401;28;22476;-55
2023/09/18 11:07:06;;;;;;;5.55;3.78;;;23.40;99.90;;;;;;5049797;28;20658;-54
2023/09/18 11:09:42;;;;;;;6.22;4.20;;;23.50;99.90;;;;;;5080288;28;20202;-58
2023/09/18 11:12:11;;;;;;;6.97;3.95;;;23.40;99.90;;;;;;5081393;28;20201;-50
2023/09/18 11:14:45;;;;;;;5.32;4.05;;;23.40;99.90;;;;;;5083918;28;20217;-56
2023/09/18 11:17:33;;;;;;;5.88;3.75;;;23.60;99.90;;;;;;5054450;28;20262;-54
2023/09/18 11:20:11;;;;;;;5.38;3.83;;;23.70;99.90;;;;;;5075529;28;20647;-54
2023/09/18 11:22:39;;;;;;;5.50;4.00;;;23.80;99.90;;;;;;5051807;28;20210;-53
2023/09/18 11:25:41;;;;;;;4.53;3.85;;;23.70;99.90;;;;;;5080854;28;20213;-49
2023/09/18 11:28:09;;;;;;;6.57;3.75;;;23.70;99.90;;;;;;5077702;28;20629;-52
2023/09/18 11:30:39;;;;;;;7.53;3.28;;;23.60;99.90;;;;;;5083222;28;20698;-53
2023/09/18 11:33:08;;;;;;;7.60;3.47;;;23.60;99.90;;;;;;5054687;28;20230;-51
2023/09/18 11:35:37;;;;;;;6.47;3.20;;;23.60;99.90;;;;;;5077102;28;20605;-56
2023/09/18 11:38:08;;;;;;;4.25;3.30;;;23.60;99.90;;;;;;5048824;28;20245;-51
2023/09/18 11:40:41;;;;;;;6.20;3.45;;;23.60;99.90;;;;;;5082126;28;20198;-55
2023/09/18 11:43:26;;;;;;;3.47;3.10;;;23.60;99.90;;;;;;5081636;28;20194;-51
2023/09/18 11:45:55;;;;;;;4.85;2.97;;;23.50;99.90;;;;;;5079433;28;20209;-52
2023/09/18 11:48:24;;;;;;;3.20;2.90;;;23.50;99.90;;;;;;5061506;28;20198;-50
2023/09/18 11:50:54;;;;;;;6.15;3.30;;;23.60;99.90;;;;;;5076519;28;20286;-48
2023/09/18 11:53:21;;;;;;;4.95;3.05;;;23.60;99.90;;;;;;5052275;28;20251;-52
2023/09/18 11:55:48;;;;;;;4.30;3.40;;;23.60;99.90;;;;;;5082937;28;20214;-54
2023/09/18 11:58:15;;;;;;;5.07;3.28;;;23.60;99.90;;;;;;5078927;28;20206;-45
2023/09/18 12:00:49;;;;;;;4.43;3.30;;;23.60;99.90;;;;;;5081872;28;20205;-52
2023/09/18 12:03:24;;;;;;;7.10;3.35;;;23.70;99.90;;;;;;5060186;28;20198;-48
2023/09/18 12:05:56;;;;;;;4.47;3.05;;;23.70;99.90;;;;;;5074008;28;20218;-48
2023/09/18 12:08:26;;;;;;;6.22;3.35;;;23.60;99.90;;;;;;5054956;28;20277;-53
2023/09/18 12:10:53;;;;;;;6.35;3.00;;;23.60;99.90;;;;;;5080318;28;20191;-59
2023/09/18 12:13:20;;;;;;;4.30;2.80;;;23.50;99.90;;;;;;5078832;28;20858;-47
2023/09/18 12:15:47;;;;;;;6.68;3.03;;;23.50;99.90;;;;;;5082625;28;20225;-47
2023/09/18 12:18:15;;;;;;;7.75;2.92;;;23.40;99.90;;;;;;5061338;28;20284;-46
2023/09/18 12:20:47;;;;;;;4.00;3.25;;;23.50;99.90;;;;;;5073182;28;20198;-47
2023/09/18 12:23:15;;;;;;;3.22;2.80;;;23.50;99.90;;;;;;5052020;28;20216;-48
2023/09/18 12:25:45;;;;;;;3.90;2.38;;;23.50;99.90;;;;;;5081031;28;20552;-46
2023/09/18 12:28:12;;;;;;;5.72;2.88;;;23.50;99.90;;;;;;5077808;28;20243;-51
2023/09/18 12:30:39;;;;;;;7.60;3.35;;;23.50;99.90;;;;;;5082510;28;20213;-48
2023/09/18 12:33:06;;;;;;;4.00;2.85;;;23.60;99.90;;;;;;5078287;28;20198;-56
2023/09/18 12:35:33;;;;;;;5.10;2.63;;;23.70;99.90;;;;;;5061513;28;20287;-48
2023/09/18 12:38:00;;;;;;;6.70;2.75;;;23.80;99.90;;;;;;5073755;28;20305;-56
2023/09/18 12:40:32;;;;;;;4.53;3.17;;;23.70;99.90;;;;;;5045845;28;20198;-51
2023/09/18 12:43:01;;;;;;;4.65;2.60;;;23.60;99.90;;;;;;5078338;28;20216;-55
2023/09/18 12:45:29;;;;;;;8.15;3.15;;;23.60;99.90;;;;;;5080262;28;20214;-51
2023/09/18 12:47:57;;;;;;;7.20;2.80;;;23.60;99.90;;;;;;5080835;28;20198;-55
2023/09/18 12:50:25;;;;;;;4.57;2.90;;;23.60;99.90;;;;;;5062081;28;20548;-49
2023/09/18 12:52:51;;;;;;;5.03;2.65;;;23.80;99.90;;;;;;5081887;28;20206;-50
2023/09/18 12:55:24;;;;;;;3.38;2.60;;;23.80;99.90;;;;;;5041412;28;20298;-46